Time;durP1;ratioP1;P1;durP2;ratioP2;P2;SDS_P1;SDS_P2;PMS_P1;PMS_P2;Temp;Humidity;BMP_temperature;BMP_pressure;BME280_temperature;BME280_humidity;BME280_pressure;Samples;Min_cycle;Max_cycle;Signal;HPM_P1;HPM_P2
2023/08/17 00:00:44;;;;;;;1.98;1.05;;;21.50;56.20;;;;;;5013263;28;20643;-71
2023/08/17 00:03:11;;;;;;;2.38;1.60;;;21.50;56.30;;;;;;5010913;28;20867;-71
2023/08/17 00:05:37;;;;;;;2.13;1.52;;;21.50;56.90;;;;;;5014652;28;20037;-70
2023/08/17 00:08:03;;;;;;;1.30;1.20;;;21.50;56.40;;;;;;5012861;28;20038;-71
2023/08/17 00:10:29;;;;;;;4.22;1.20;;;21.40;56.30;;;;;;5014215;28;20033;-71
2023/08/17 00:12:56;;;;;;;1.55;1.20;;;21.40;56.40;;;;;;5019262;28;20048;-70
2023/08/17 00:15:22;;;;;;;2.80;1.60;;;21.40;56.40;;;;;;5016960;28;20124;-72
2023/08/17 00:17:47;;;;;;;1.27;1.17;;;21.30;56.30;;;;;;5018679;28;20037;-72
2023/08/17 00:20:14;;;;;;;2.47;1.63;;;21.30;56.40;;;;;;5008972;28;20217;-72
2023/08/17 00:22:39;;;;;;;2.90;2.03;;;21.30;56.50;;;;;;5018727;28;20034;-70
2023/08/17 00:25:06;;;;;;;2.65;1.63;;;21.20;56.50;;;;;;5019557;28;20043;-72
2023/08/17 00:27:33;;;;;;;3.17;2.25;;;21.20;56.60;;;;;;5011378;28;20048;-70
2023/08/17 00:29:59;;;;;;;2.33;2.13;;;21.20;56.70;;;;;;5019436;28;20045;-70
2023/08/17 00:32:25;;;;;;;2.40;1.88;;;21.10;56.70;;;;;;5014570;28;20034;-70
2023/08/17 00:34:51;;;;;;;2.97;2.28;;;21.10;56.70;;;;;;5015530;28;20033;-72
2023/08/17 00:37:17;;;;;;;2.55;2.33;;;21.00;56.70;;;;;;5016106;28;20799;-72
2023/08/17 00:39:44;;;;;;;3.25;2.00;;;20.90;56.60;;;;;;5013747;28;20686;-71
2023/08/17 00:42:10;;;;;;;3.22;2.30;;;20.90;56.80;;;;;;5011201;28;20123;-73
2023/08/17 00:44:36;;;;;;;2.22;2.00;;;20.80;56.70;;;;;;5017737;28;20038;-71
2023/08/17 00:47:04;;;;;;;3.42;2.13;;;20.80;56.90;;;;;;5018111;28;20418;-71
2023/08/17 00:49:31;;;;;;;2.50;2.28;;;20.70;56.90;;;;;;5019701;28;20050;-71
2023/08/17 00:51:57;;;;;;;3.55;2.38;;;20.70;57.00;;;;;;5016031;28;20482;-70
2023/08/17 00:54:29;;;;;;;3.60;2.53;;;20.70;57.10;;;;;;5020779;28;20036;-71
2023/08/17 00:56:55;;;;;;;3.25;2.42;;;20.60;57.10;;;;;;5016581;28;20805;-71
2023/08/17 00:59:23;;;;;;;3.03;2.30;;;20.50;57.00;;;;;;5018123;28;20173;-72
2023/08/17 01:01:49;;;;;;;3.75;2.40;;;20.50;57.10;;;;;;5016399;28;20064;-71
2023/08/17 01:04:15;;;;;;;2.60;2.40;;;20.40;57.10;;;;;;5019384;28;20116;-72
2023/08/17 01:06:41;;;;;;;2.88;2.20;;;20.40;57.20;;;;;;5020569;28;20037;-72
2023/08/17 01:09:08;;;;;;;3.97;2.47;;;20.40;57.30;;;;;;5014294;28;20042;-72
2023/08/17 01:12:07;;;;;;;2.78;2.03;;;20.30;57.30;;;;;;5014098;28;20049;-72
2023/08/17 01:14:43;;;;;;;3.67;2.45;;;20.30;57.50;;;;;;5018408;28;20122;-72
2023/08/17 01:17:18;;;;;;;3.50;2.33;;;20.20;57.50;;;;;;5010920;28;20041;-71
2023/08/17 01:19:45;;;;;;;3.75;2.20;;;20.20;57.50;;;;;;5017972;28;20042;-71
2023/08/17 01:22:14;;;;;;;3.15;2.00;;;20.10;57.40;;;;;;5002906;28;20031;-72
2023/08/17 01:24:41;;;;;;;2.60;2.00;;;20.10;57.50;;;;;;5015050;28;20049;-72
2023/08/17 01:27:08;;;;;;;2.45;2.00;;;20.10;57.60;;;;;;5009939;28;20080;-71
2023/08/17 01:29:34;;;;;;;3.05;2.08;;;20.00;57.60;;;;;;5012289;28;20041;-72
2023/08/17 01:32:06;;;;;;;2.90;2.50;;;20.00;57.70;;;;;;5012266;28;20029;-71
2023/08/17 01:34:37;;;;;;;2.33;1.98;;;19.90;57.70;;;;;;5012103;28;20037;-72
2023/08/17 01:37:07;;;;;;;2.35;2.15;;;19.90;57.80;;;;;;5014326;28;20469;-71
2023/08/17 01:39:37;;;;;;;3.85;2.22;;;19.90;57.90;;;;;;5009742;28;20061;-72
2023/08/17 01:42:05;;;;;;;3.22;1.92;;;19.80;57.90;;;;;;5016784;28;20026;-72
2023/08/17 01:44:31;;;;;;;4.15;2.17;;;19.80;58.00;;;;;;5015423;28;20093;-72
2023/08/17 01:46:57;;;;;;;4.03;2.42;;;19.70;58.00;;;;;;5018997;28;20041;-72
2023/08/17 01:49:23;;;;;;;3.08;2.38;;;19.70;58.10;;;;;;5022438;28;20433;-70
2023/08/17 01:51:49;;;;;;;3.03;2.40;;;19.60;58.00;;;;;;5020587;28;20441;-71
2023/08/17 01:54:15;;;;;;;3.75;2.20;;;19.60;58.20;;;;;;5021902;28;20100;-71
2023/08/17 01:56:41;;;;;;;2.92;2.47;;;19.50;58.20;;;;;;5020934;28;20025;-71
2023/08/17 01:59:07;;;;;;;3.63;2.30;;;19.50;58.30;;;;;;5014248;28;20037;-72
2023/08/17 02:01:33;;;;;;;3.75;2.03;;;19.50;58.40;;;;;;5020560;28;20090;-72
2023/08/17 02:04:02;;;;;;;5.43;2.70;;;19.40;58.40;;;;;;5022511;28;20390;-72
2023/08/17 02:06:29;;;;;;;2.40;2.20;;;19.30;58.30;;;;;;5017352;28;20030;-71
2023/08/17 02:08:55;;;;;;;3.08;2.45;;;19.30;58.50;;;;;;5013170;28;20524;-71
2023/08/17 02:11:23;;;;;;;2.63;2.20;;;19.30;58.60;;;;;;5018434;28;20061;-72
2023/08/17 02:13:50;;;;;;;4.00;2.60;;;19.20;58.50;;;;;;5013598;28;20084;-71
2023/08/17 02:16:16;;;;;;;2.80;2.40;;;19.20;58.70;;;;;;5019857;28;20041;-72
2023/08/17 02:18:43;;;;;;;2.70;1.90;;;19.20;58.80;;;;;;5012686;28;20103;-72
2023/08/17 02:21:09;;;;;;;2.50;2.30;;;19.10;58.70;;;;;;5035901;28;20030;-72
2023/08/17 02:23:35;;;;;;;2.92;2.17;;;19.10;58.80;;;;;;5018590;28;20068;-71
2023/08/17 02:26:01;;;;;;;3.88;2.08;;;19.10;58.90;;;;;;5021085;28;20052;-72
2023/08/17 02:28:27;;;;;;;2.47;2.28;;;19.00;58.90;;;;;;5019530;28;20033;-72
2023/08/17 02:30:56;;;;;;;4.50;2.35;;;19.00;59.00;;;;;;5015695;28;20029;-72
2023/08/17 02:33:24;;;;;;;4.10;2.33;;;18.90;58.90;;;;;;5014559;28;20517;-72
2023/08/17 02:35:51;;;;;;;3.00;2.70;;;18.90;59.00;;;;;;5019416;28;20541;-71
2023/08/17 02:38:18;;;;;;;2.35;2.03;;;18.90;59.20;;;;;;5011369;28;20064;-72
2023/08/17 02:40:44;;;;;;;2.55;2.35;;;18.80;59.10;;;;;;5019151;28;20056;-72
2023/08/17 02:43:10;;;;;;;3.80;2.25;;;18.80;59.20;;;;;;5020021;28;20199;-71
2023/08/17 02:45:36;;;;;;;2.60;2.40;;;18.80;59.30;;;;;;5022114;28;20029;-70
2023/08/17 02:48:03;;;;;;;2.60;2.17;;;18.70;59.20;;;;;;5022086;28;20076;-70
2023/08/17 02:50:29;;;;;;;2.85;2.53;;;18.70;59.40;;;;;;5018980;28;20501;-70
2023/08/17 02:52:55;;;;;;;2.50;1.90;;;18.70;59.50;;;;;;5019715;28;20040;-70
2023/08/17 02:55:20;;;;;;;3.85;2.05;;;18.70;59.60;;;;;;5015610;28;20037;-70
2023/08/17 02:57:46;;;;;;;5.78;3.17;;;18.60;59.50;;;;;;5013289;28;20074;-71
2023/08/17 03:00:14;;;;;;;4.78;2.30;;;18.60;59.70;;;;;;5014012;28;20035;-70
2023/08/17 03:02:40;;;;;;;3.80;2.45;;;18.50;59.60;;;;;;5014747;28;20029;-70
2023/08/17 03:05:06;;;;;;;2.97;2.47;;;18.50;59.60;;;;;;5018906;28;20033;-70
2023/08/17 03:07:32;;;;;;;3.08;2.78;;;18.50;59.80;;;;;;5020412;28;20049;-70
2023/08/17 03:09:58;;;;;;;3.20;2.45;;;18.50;59.90;;;;;;5016299;28;20064;-70
2023/08/17 03:12:24;;;;;;;3.38;2.38;;;18.50;60.00;;;;;;5020079;28;20083;-70
2023/08/17 03:14:50;;;;;;;2.53;2.30;;;18.40;59.90;;;;;;5014480;28;20025;-70
2023/08/17 03:17:16;;;;;;;3.17;2.75;;;18.40;60.10;;;;;;5020325;28;20125;-70
2023/08/17 03:19:41;;;;;;;3.67;2.78;;;18.40;60.10;;;;;;5018882;28;20041;-69
2023/08/17 03:22:07;;;;;;;2.72;2.30;;;18.40;60.20;;;;;;5019142;28;20049;-70
2023/08/17 03:24:34;;;;;;;3.45;2.30;;;18.30;60.10;;;;;;5014983;28;20100;-69
2023/08/17 03:27:00;;;;;;;3.13;2.60;;;18.30;60.20;;;;;;5016663;28;20681;-70
2023/08/17 03:29:27;;;;;;;3.92;2.85;;;18.30;60.30;;;;;;5019657;28;20478;-70
2023/08/17 03:31:53;;;;;;;5.28;3.38;;;18.30;60.40;;;;;;5015020;28;20041;-69
2023/08/17 03:34:19;;;;;;;4.22;3.13;;;18.30;60.50;;;;;;5021616;28;20088;-70
2023/08/17 03:36:45;;;;;;;4.55;3.00;;;18.20;60.40;;;;;;5018747;28;20049;-70
2023/08/17 03:39:11;;;;;;;3.33;2.63;;;18.20;60.50;;;;;;5018671;28;20072;-70
2023/08/17 03:41:37;;;;;;;5.15;3.50;;;18.20;60.60;;;;;;5014673;28;20025;-70
2023/08/17 03:44:05;;;;;;;5.30;3.17;;;18.20;60.70;;;;;;5017821;28;20037;-70
2023/08/17 03:46:32;;;;;;;3.72;3.42;;;18.10;60.50;;;;;;5013653;28;20033;-70
2023/08/17 03:48:58;;;;;;;3.28;2.80;;;18.10;60.70;;;;;;5015255;28;20042;-70
2023/08/17 03:51:24;;;;;;;5.03;3.35;;;18.10;60.70;;;;;;5018471;28;20045;-70
2023/08/17 03:53:52;;;;;;;4.65;3.47;;;18.10;60.90;;;;;;5019640;28;20095;-71
2023/08/17 03:56:18;;;;;;;4.45;3.13;;;18.00;60.80;;;;;;5014471;28;20033;-69
2023/08/17 03:58:44;;;;;;;3.85;2.60;;;18.00;60.80;;;;;;5019498;28;20094;-69
2023/08/17 04:01:11;;;;;;;4.47;3.50;;;18.00;60.90;;;;;;5018396;28;20068;-69
2023/08/17 04:03:39;;;;;;;6.03;3.90;;;17.90;60.80;;;;;;5017500;28;20052;-69
2023/08/17 04:06:10;;;;;;;2.97;2.65;;;18.00;61.10;;;;;;5019857;28;20497;-69
2023/08/17 04:08:39;;;;;;;3.10;2.80;;;18.00;61.20;;;;;;5017924;28;20033;-70
2023/08/17 04:11:05;;;;;;;5.03;3.30;;;17.90;61.20;;;;;;5013574;28;20421;-69
2023/08/17 04:13:31;;;;;;;4.25;3.83;;;17.80;61.00;;;;;;5022423;28;20041;-74
2023/08/17 04:15:58;;;;;;;4.38;3.90;;;17.80;61.10;;;;;;5022507;28;20044;-74
2023/08/17 04:18:24;;;;;;;3.55;3.25;;;17.80;61.20;;;;;;5024809;28;20037;-73
2023/08/17 04:20:50;;;;;;;4.38;3.70;;;17.80;61.40;;;;;;5021721;28;20107;-74
2023/08/17 04:23:16;;;;;;;5.13;3.33;;;17.80;61.40;;;;;;5021272;28;20040;-72
2023/08/17 04:25:43;;;;;;;3.72;3.33;;;17.70;61.40;;;;;;5018667;28;20112;-73
2023/08/17 04:28:09;;;;;;;3.30;2.65;;;17.70;61.50;;;;;;5016602;28;20038;-72
2023/08/17 04:30:37;;;;;;;4.15;3.70;;;17.70;61.50;;;;;;5017102;28;20030;-71
2023/08/17 04:33:03;;;;;;;4.38;3.42;;;17.70;61.60;;;;;;5015199;28;20116;-71
2023/08/17 04:35:29;;;;;;;3.45;3.00;;;17.70;61.70;;;;;;5013400;28;20037;-70
2023/08/17 04:37:55;;;;;;;3.88;3.38;;;17.60;61.60;;;;;;5014745;28;20055;-71
2023/08/17 04:40:21;;;;;;;3.13;2.67;;;17.60;61.70;;;;;;5016660;28;20057;-71
2023/08/17 04:42:49;;;;;;;6.25;4.15;;;17.60;61.70;;;;;;5013430;28;20165;-71
2023/08/17 04:45:15;;;;;;;5.15;3.85;;;17.60;61.90;;;;;;4992581;28;20120;-70
2023/08/17 04:47:44;;;;;;;4.80;3.65;;;17.50;61.70;;;;;;5014134;28;20128;-70
2023/08/17 04:50:15;;;;;;;5.68;4.07;;;17.50;61.80;;;;;;5016328;28;20046;-70
2023/08/17 04:52:45;;;;;;;4.68;4.07;;;17.50;61.90;;;;;;5000229;28;20061;-70
2023/08/17 04:55:14;;;;;;;5.18;4.00;;;17.40;61.80;;;;;;5013105;28;20025;-70
2023/08/17 04:57:41;;;;;;;5.63;4.90;;;17.50;62.10;;;;;;5016229;28;20041;-70
2023/08/17 05:00:10;;;;;;;5.18;4.57;;;17.40;62.00;;;;;;5020876;28;20045;-69
2023/08/17 05:02:37;;;;;;;4.75;4.32;;;17.40;62.00;;;;;;5015875;28;20064;-69
2023/08/17 05:05:05;;;;;;;5.60;5.10;;;17.40;62.10;;;;;;5010403;28;20038;-70
2023/08/17 05:07:31;;;;;;;5.97;4.88;;;17.30;62.00;;;;;;5014868;28;20650;-70
2023/08/17 05:09:57;;;;;;;5.85;4.97;;;17.30;62.00;;;;;;5017740;28;20116;-70
2023/08/17 05:12:23;;;;;;;6.55;5.45;;;17.30;62.10;;;;;;5010536;28;20041;-70
2023/08/17 05:14:49;;;;;;;5.28;4.78;;;17.30;62.20;;;;;;5010869;28;20045;-70
2023/08/17 05:17:15;;;;;;;6.75;5.70;;;17.20;62.10;;;;;;5009957;28;20037;-71
2023/08/17 05:19:41;;;;;;;6.18;5.57;;;17.20;62.20;;;;;;5007019;28;20042;-71
2023/08/17 05:22:12;;;;;;;7.03;5.90;;;17.20;62.30;;;;;;5013083;28;20045;-71
2023/08/17 05:24:38;;;;;;;9.52;6.43;;;17.20;62.30;;;;;;5002142;28;20869;-70
2023/08/17 05:27:06;;;;;;;7.82;6.18;;;17.20;62.30;;;;;;5004486;28;20492;-71
2023/08/17 05:29:33;;;;;;;9.48;7.20;;;17.20;62.40;;;;;;5005136;28;20038;-71
2023/08/17 05:32:00;;;;;;;7.38;6.68;;;17.20;62.50;;;;;;5017621;28;20025;-70
2023/08/17 05:34:27;;;;;;;8.35;7.55;;;17.20;62.60;;;;;;5010691;28;20133;-71
2023/08/17 05:36:54;;;;;;;9.52;7.78;;;17.20;62.50;;;;;;5016161;28;20061;-71
2023/08/17 05:39:20;;;;;;;8.82;7.93;;;17.30;62.70;;;;;;5008151;28;20136;-70
2023/08/17 05:41:46;;;;;;;9.88;8.88;;;17.30;62.80;;;;;;5016223;28;20041;-70
2023/08/17 05:44:14;;;;;;;10.40;9.40;;;17.40;63.40;;;;;;5014835;28;20034;-70
2023/08/17 05:46:40;;;;;;;12.60;9.98;;;17.40;63.90;;;;;;5015551;28;20490;-70
2023/08/17 05:49:07;;;;;;;11.45;10.25;;;17.40;64.10;;;;;;5010318;28;20038;-70
2023/08/17 05:51:33;;;;;;;17.23;11.68;;;17.50;64.60;;;;;;5011809;28;20481;-70
2023/08/17 05:54:00;;;;;;;13.02;11.48;;;17.50;64.90;;;;;;5002603;28;20193;-70
2023/08/17 05:56:27;;;;;;;14.65;11.55;;;17.60;65.20;;;;;;5013217;28;20037;-71
2023/08/17 05:58:54;;;;;;;15.25;12.45;;;17.60;65.50;;;;;;5012656;28;20437;-70
2023/08/17 06:01:20;;;;;;;15.95;12.77;;;17.70;65.90;;;;;;5012589;28;20037;-70
2023/08/17 06:03:46;;;;;;;15.88;13.80;;;17.70;66.60;;;;;;5013199;28;20033;-70
2023/08/17 06:06:13;;;;;;;18.05;14.15;;;17.80;66.40;;;;;;5007021;28;20045;-71
2023/08/17 06:08:40;;;;;;;17.10;14.43;;;17.80;66.50;;;;;;5014839;28;20045;-70
2023/08/17 06:11:06;;;;;;;20.27;14.90;;;17.90;66.80;;;;;;5004699;28;20128;-70
2023/08/17 06:13:32;;;;;;;19.33;14.73;;;17.90;66.90;;;;;;5005397;28;20034;-71
2023/08/17 06:15:58;;;;;;;22.70;16.52;;;18.00;67.20;;;;;;5005331;28;20083;-70
2023/08/17 06:18:24;;;;;;;22.55;16.98;;;18.00;67.30;;;;;;5002411;28;20128;-70
2023/08/17 06:20:53;;;;;;;18.80;15.43;;;18.10;67.60;;;;;;5005461;28;20112;-70
2023/08/17 06:23:20;;;;;;;20.60;16.95;;;18.20;67.90;;;;;;5009099;28;20076;-70
2023/08/17 06:25:46;;;;;;;19.73;15.43;;;18.20;68.10;;;;;;5008710;28;20018;-71
2023/08/17 06:28:12;;;;;;;19.08;15.73;;;18.30;68.30;;;;;;4997973;28;20349;-70
2023/08/17 06:30:39;;;;;;;17.58;15.15;;;18.30;68.50;;;;;;5010064;28;20124;-70
2023/08/17 06:33:06;;;;;;;22.17;16.83;;;18.30;68.50;;;;;;5014898;28;20033;-70
2023/08/17 06:35:32;;;;;;;17.65;15.75;;;18.40;68.80;;;;;;5017285;28;20551;-70
2023/08/17 06:37:58;;;;;;;18.38;15.98;;;18.40;68.90;;;;;;5011144;28;20038;-71
2023/08/17 06:40:25;;;;;;;17.67;15.68;;;18.50;68.90;;;;;;5006110;28;20111;-71
2023/08/17 06:42:52;;;;;;;19.48;15.88;;;18.60;69.00;;;;;;5010498;28;20518;-70
2023/08/17 06:45:18;;;;;;;20.80;16.77;;;18.60;68.90;;;;;;5017268;28;20083;-70
2023/08/17 06:47:45;;;;;;;19.77;16.95;;;18.70;68.90;;;;;;5011238;28;20409;-70
2023/08/17 06:50:11;;;;;;;20.92;16.00;;;18.70;69.00;;;;;;5014536;28;20120;-69
2023/08/17 06:52:37;;;;;;;22.25;17.95;;;18.80;69.10;;;;;;5009297;28;20084;-71
2023/08/17 06:55:07;;;;;;;21.08;16.60;;;18.80;69.00;;;;;;5012364;28;20075;-70
2023/08/17 06:57:33;;;;;;;18.58;16.65;;;18.90;69.00;;;;;;5010510;28;20360;-70
2023/08/17 06:59:59;;;;;;;20.88;15.80;;;19.00;69.20;;;;;;5006051;28;20635;-70
2023/08/17 07:02:26;;;;;;;19.80;16.02;;;19.00;69.10;;;;;;5009542;28;20037;-70
2023/08/17 07:04:52;;;;;;;21.23;17.00;;;19.10;69.10;;;;;;5005342;28;20091;-70
2023/08/17 07:07:17;;;;;;;19.10;16.80;;;19.10;69.00;;;;;;5010047;28;20033;-70
2023/08/17 07:09:44;;;;;;;17.40;14.68;;;19.20;69.10;;;;;;5002076;28;20312;-70
2023/08/17 07:12:10;;;;;;;18.27;16.02;;;19.30;69.10;;;;;;5012520;28;20438;-70
2023/08/17 07:14:37;;;;;;;17.77;14.63;;;19.30;69.00;;;;;;5006649;28;20591;-70
2023/08/17 07:17:06;;;;;;;16.75;15.02;;;19.40;69.00;;;;;;5015397;28;20065;-71
2023/08/17 07:19:35;;;;;;;18.00;15.68;;;19.50;68.90;;;;;;5010174;28;20133;-70
2023/08/17 07:22:02;;;;;;;21.17;17.17;;;19.60;68.90;;;;;;5013100;28;20061;-70
2023/08/17 07:24:29;;;;;;;17.02;15.23;;;19.70;68.90;;;;;;5014469;28;20137;-70
2023/08/17 07:26:55;;;;;;;19.27;14.20;;;19.80;68.90;;;;;;5010395;28;20050;-70
2023/08/17 07:29:22;;;;;;;16.90;15.07;;;19.90;68.90;;;;;;5003392;28;20038;-70
2023/08/17 07:31:49;;;;;;;18.08;14.85;;;20.00;68.90;;;;;;5011213;28;20037;-70
2023/08/17 07:34:16;;;;;;;15.93;14.27;;;20.10;68.80;;;;;;5008499;28;20061;-70
2023/08/17 07:36:43;;;;;;;19.33;15.55;;;20.20;68.80;;;;;;5011481;28;20037;-70
2023/08/17 07:39:09;;;;;;;27.30;16.95;;;20.30;68.70;;;;;;5003528;28;20041;-70
2023/08/17 07:41:37;;;;;;;28.38;17.08;;;20.50;68.80;;;;;;5016814;28;20520;-70
2023/08/17 07:44:04;;;;;;;24.55;16.67;;;20.70;68.80;;;;;;5009721;28;20041;-72
2023/08/17 07:46:31;;;;;;;21.80;16.77;;;20.90;68.70;;;;;;5006594;28;20042;-70
2023/08/17 07:48:57;;;;;;;65.07;26.40;;;21.00;68.30;;;;;;5013418;28;20049;-71
2023/08/17 07:51:24;;;;;;;39.10;21.50;;;21.10;68.30;;;;;;5008144;28;20441;-70
2023/08/17 07:53:50;;;;;;;57.17;21.33;;;21.30;68.70;;;;;;5011431;28;20486;-71
2023/08/17 07:56:17;;;;;;;39.80;19.38;;;21.30;68.70;;;;;;5006648;28;20033;-71
2023/08/17 07:58:43;;;;;;;40.00;20.17;;;21.40;68.80;;;;;;5005755;28;20095;-71
2023/08/17 08:01:10;;;;;;;47.10;20.85;;;21.50;69.00;;;;;;5005149;28;20034;-71
2023/08/17 08:03:36;;;;;;;38.58;20.27;;;21.70;69.20;;;;;;5011483;28;20064;-71
2023/08/17 08:06:02;;;;;;;34.95;18.73;;;21.80;69.20;;;;;;5007971;28;20038;-71
2023/08/17 08:08:29;;;;;;;28.15;16.45;;;22.00;69.20;;;;;;5005406;28;20047;-71
2023/08/17 08:10:56;;;;;;;29.90;16.40;;;22.20;69.20;;;;;;5011723;28;20064;-71
2023/08/17 08:13:23;;;;;;;34.35;17.40;;;22.30;69.00;;;;;;5009746;28;20492;-71
2023/08/17 08:15:52;;;;;;;42.70;24.73;;;22.40;68.90;;;;;;5008579;28;20485;-74
2023/08/17 08:18:18;;;;;;;25.42;17.05;;;22.60;68.90;;;;;;5009158;28;20045;-73
2023/08/17 08:20:48;;;;;;;27.65;16.17;;;22.90;69.00;;;;;;5010324;28;20380;-71
2023/08/17 08:23:15;;;;;;;26.33;13.70;;;23.10;68.60;;;;;;5008944;28;20033;-71
2023/08/17 08:25:41;;;;;;;22.63;15.07;;;23.40;68.40;;;;;;5008225;28;20048;-71
2023/08/17 08:28:08;;;;;;;19.63;13.35;;;23.60;68.10;;;;;;5007247;28;20408;-71
2023/08/17 08:30:35;;;;;;;17.35;13.32;;;23.90;68.10;;;;;;5010553;28;20037;-71
2023/08/17 08:33:02;;;;;;;16.48;12.25;;;24.00;67.60;;;;;;5014012;28;20200;-71
2023/08/17 08:35:29;;;;;;;16.25;11.30;;;24.20;67.40;;;;;;5016726;28;20026;-71
2023/08/17 08:37:55;;;;;;;17.63;12.00;;;24.50;67.40;;;;;;5010848;28;20060;-71
2023/08/17 08:40:28;;;;;;;14.23;11.23;;;24.60;66.90;;;;;;5010353;28;20025;-71
2023/08/17 08:42:56;;;;;;;;;;;24.90;66.80;;;;;;5015727;28;20362;-71
2023/08/17 08:45:23;;;;;;;23.27;13.07;;;25.10;66.70;;;;;;5010682;28;20338;-71
2023/08/17 08:47:51;;;;;;;16.30;11.20;;;25.20;66.40;;;;;;5010530;28;20045;-71
2023/08/17 08:50:21;;;;;;;12.40;10.27;;;25.40;66.00;;;;;;5016801;28;20409;-71
2023/08/17 08:53:04;;;;;;;16.00;10.80;;;25.50;65.60;;;;;;5008024;28;20091;-71
2023/08/17 08:55:35;;;;;;;14.40;9.40;;;25.60;65.20;;;;;;5009310;28;20540;-71
2023/08/17 08:58:04;;;;;;;11.40;9.32;;;25.70;65.00;;;;;;5014148;28;20303;-71
2023/08/17 09:00:33;;;;;;;11.98;9.68;;;25.80;64.80;;;;;;5004359;28;20038;-71
2023/08/17 09:03:01;;;;;;;13.90;9.18;;;25.90;64.50;;;;;;5019453;28;20022;-71
2023/08/17 09:05:29;;;;;;;12.63;9.40;;;25.90;64.20;;;;;;5017105;28;20378;-71
2023/08/17 09:07:57;;;;;;;11.27;8.65;;;26.00;64.00;;;;;;5011810;28;20165;-71
2023/08/17 09:10:24;;;;;;;10.55;8.70;;;26.10;63.90;;;;;;5010244;28;20040;-71
2023/08/17 09:12:50;;;;;;;9.70;8.18;;;26.20;63.50;;;;;;5013865;28;20119;-71
2023/08/17 09:15:16;;;;;;;12.60;9.25;;;26.40;63.20;;;;;;5013823;28;20160;-71
2023/08/17 09:17:44;;;;;;;10.05;7.28;;;26.60;62.90;;;;;;5016205;28;20578;-71
2023/08/17 09:20:11;;;;;;;9.57;7.85;;;26.70;62.60;;;;;;5014481;28;20120;-71
2023/08/17 09:22:42;;;;;;;10.23;8.27;;;26.90;62.40;;;;;;5017392;28;20044;-71
2023/08/17 09:25:21;;;;;;;11.50;8.38;;;26.90;62.10;;;;;;5014108;28;20196;-71
2023/08/17 09:27:47;;;;;;;11.85;8.85;;;27.00;61.90;;;;;;5012268;28;20025;-71
2023/08/17 09:30:13;;;;;;;8.88;7.32;;;27.20;61.70;;;;;;5017977;28;20052;-71
2023/08/17 09:32:41;;;;;;;10.23;7.93;;;27.30;61.50;;;;;;5007337;28;20034;-71
2023/08/17 09:35:08;;;;;;;8.18;6.53;;;27.30;61.20;;;;;;5016495;28;20037;-71
2023/08/17 09:37:34;;;;;;;7.32;5.95;;;27.40;61.00;;;;;;5012752;28;20026;-71
2023/08/17 09:40:01;;;;;;;10.15;7.63;;;27.50;60.90;;;;;;5018481;28;20124;-71
2023/08/17 09:42:35;;;;;;;8.80;6.57;;;27.50;60.70;;;;;;5018024;28;20087;-71
2023/08/17 09:45:02;;;;;;;9.13;6.40;;;27.60;60.50;;;;;;5011543;28;20045;-71
2023/08/17 09:47:38;;;;;;;8.30;6.63;;;27.60;60.40;;;;;;5012292;28;20038;-71
2023/08/17 09:50:06;;;;;;;8.02;7.22;;;27.50;60.40;;;;;;5013795;28;20061;-71
2023/08/17 09:52:32;;;;;;;7.25;6.18;;;27.50;60.30;;;;;;5008325;28;20524;-71
2023/08/17 09:55:03;;;;;;;6.85;6.18;;;27.50;60.30;;;;;;5013769;28;20056;-71
2023/08/17 09:57:30;;;;;;;6.85;6.18;;;27.70;60.30;;;;;;5011241;28;20029;-71
2023/08/17 09:59:57;;;;;;;6.95;6.22;;;27.80;60.60;;;;;;5008004;28;20125;-71
2023/08/17 10:02:24;;;;;;;7.25;5.25;;;28.00;59.70;;;;;;5013563;28;20031;-71
2023/08/17 10:04:53;;;;;;;7.00;5.60;;;28.20;59.40;;;;;;5010920;28;20045;-71
2023/08/17 10:07:21;;;;;;;7.72;6.25;;;28.30;59.10;;;;;;5013814;28;20025;-71
2023/08/17 10:10:03;;;;;;;7.85;5.90;;;28.40;58.90;;;;;;5006042;28;20033;-71
2023/08/17 10:12:36;;;;;;;7.32;5.53;;;28.50;58.60;;;;;;5015259;28;20029;-71
2023/08/17 10:15:10;;;;;;;7.18;5.65;;;28.70;58.40;;;;;;5012668;28;20984;-71
2023/08/17 10:18:08;;;;;;;6.30;5.70;;;28.80;58.10;;;;;;5013452;28;20096;-71
2023/08/17 10:20:36;;;;;;;6.88;5.40;;;28.90;57.70;;;;;;5016444;28;20130;-71
2023/08/17 10:23:14;;;;;;;6.63;5.72;;;29.10;57.70;;;;;;5012188;28;20104;-70
2023/08/17 10:25:44;;;;;;;6.85;5.40;;;29.20;57.30;;;;;;5013458;28;20037;-71
2023/08/17 10:28:13;;;;;;;6.50;5.90;;;29.20;57.20;;;;;;5011845;28;20036;-71
2023/08/17 10:30:41;;;;;;;6.78;5.25;;;29.30;57.10;;;;;;5016119;28;20041;-71
2023/08/17 10:33:08;;;;;;;8.40;5.20;;;29.30;56.90;;;;;;5011797;28;20037;-71
2023/08/17 10:35:35;;;;;;;10.90;5.85;;;29.40;56.80;;;;;;5012402;28;20773;-71
2023/08/17 10:38:05;;;;;;;6.05;5.43;;;29.50;56.70;;;;;;5014615;28;20054;-71
2023/08/17 10:40:36;;;;;;;10.88;6.00;;;29.50;56.40;;;;;;5014780;28;20387;-70
2023/08/17 10:43:02;;;;;;;133.32;33.88;;;29.50;56.30;;;;;;5010997;28;20141;-70
2023/08/17 10:45:38;;;;;;;121.80;34.97;;;29.50;56.30;;;;;;5010044;28;20122;-71
2023/08/17 10:48:08;;;;;;;125.93;42.53;;;29.60;56.10;;;;;;5010215;28;20295;-71
2023/08/17 10:50:39;;;;;;;136.25;41.17;;;29.70;55.90;;;;;;5017606;28;20132;-70
2023/08/17 10:53:12;;;;;;;107.20;35.63;;;29.70;55.80;;;;;;5013374;28;20037;-70
2023/08/17 10:55:41;;;;;;;93.03;32.20;;;29.70;55.60;;;;;;5013031;28;20041;-70
2023/08/17 10:58:11;;;;;;;110.15;35.45;;;29.80;55.60;;;;;;5005295;28;20037;-70
2023/08/17 11:00:38;;;;;;;89.45;29.73;;;29.80;55.60;;;;;;5012511;28;20104;-70
2023/08/17 11:03:07;;;;;;;62.45;22.02;;;29.70;56.20;;;;;;5011494;28;20124;-70
2023/08/17 11:05:44;;;;;;;69.72;25.42;;;29.70;55.60;;;;;;5012950;28;20060;-70
2023/08/17 11:08:27;;;;;;;89.43;29.45;;;29.70;55.50;;;;;;5004698;28;20309;-70
2023/08/17 11:11:06;;;;;;;139.52;39.95;;;29.80;55.30;;;;;;5010136;28;20043;-70
2023/08/17 11:13:38;;;;;;;120.03;40.45;;;29.90;55.20;;;;;;5006708;28;20037;-71
2023/08/17 11:16:06;;;;;;;129.95;40.13;;;29.90;55.20;;;;;;5009900;28;20437;-70
2023/08/17 11:18:33;;;;;;;120.13;40.75;;;30.00;55.20;;;;;;5009669;28;20083;-71
2023/08/17 11:21:03;;;;;;;110.53;38.40;;;30.10;55.10;;;;;;5010637;28;20396;-70
2023/08/17 11:23:33;;;;;;;99.00;35.58;;;30.10;55.00;;;;;;5009707;28;20153;-70
2023/08/17 11:26:01;;;;;;;80.03;30.98;;;30.20;54.90;;;;;;5006753;28;20025;-71
2023/08/17 11:28:36;;;;;;;75.15;29.40;;;30.30;54.70;;;;;;5013187;28;20025;-70
2023/08/17 11:31:05;;;;;;;66.97;25.75;;;30.30;54.40;;;;;;5001443;28;20095;-70
2023/08/17 11:33:32;;;;;;;58.10;24.48;;;30.30;54.40;;;;;;4989550;28;20117;-70
2023/08/17 11:36:00;;;;;;;47.00;20.40;;;30.40;54.30;;;;;;5012953;28;20102;-72
2023/08/17 11:38:34;;;;;;;43.97;19.75;;;30.30;54.20;;;;;;5003354;28;20060;-72
2023/08/17 11:41:02;;;;;;;46.85;20.25;;;30.30;54.10;;;;;;5007406;28;20080;-71
2023/08/17 11:43:33;;;;;;;41.35;17.98;;;30.30;54.20;;;;;;5016367;28;20602;-71
2023/08/17 11:46:01;;;;;;;45.17;18.95;;;30.30;54.20;;;;;;5010396;28;20415;-71
2023/08/17 11:48:29;;;;;;;41.28;18.15;;;30.30;54.20;;;;;;5008289;28;20262;-70
2023/08/17 11:50:55;;;;;;;38.15;17.42;;;30.30;54.20;;;;;;5008394;28;20100;-70
2023/08/17 11:53:36;;;;;;;36.35;15.15;;;30.30;54.10;;;;;;5010872;28;20489;-70
2023/08/17 11:56:02;;;;;;;36.28;16.52;;;30.50;53.90;;;;;;5014308;28;20034;-71
2023/08/17 11:58:42;;;;;;;34.13;14.95;;;30.70;53.80;;;;;;5010574;28;20596;-71
2023/08/17 12:01:11;;;;;;;31.77;14.80;;;30.80;53.50;;;;;;5003873;28;20022;-71
2023/08/17 12:03:39;;;;;;;21.88;12.40;;;30.80;53.50;;;;;;5005684;28;20034;-71
2023/08/17 12:06:06;;;;;;;26.75;12.85;;;30.70;53.40;;;;;;5016002;28;20033;-70
2023/08/17 12:08:33;;;;;;;25.65;13.00;;;30.60;53.50;;;;;;5020136;28;20037;-70
2023/08/17 12:11:01;;;;;;;25.27;12.45;;;30.50;53.60;;;;;;5010148;28;20099;-71
2023/08/17 12:13:34;;;;;;;18.23;9.65;;;30.50;53.70;;;;;;5014768;28;20393;-70
2023/08/17 12:16:01;;;;;;;21.55;10.93;;;30.40;53.50;;;;;;5006954;28;20187;-71
2023/08/17 12:18:28;;;;;;;25.13;11.70;;;30.40;53.60;;;;;;5007885;28;20021;-71
2023/08/17 12:20:55;;;;;;;19.15;10.57;;;30.30;53.70;;;;;;5008960;28;20045;-71
2023/08/17 12:23:22;;;;;;;16.52;9.10;;;30.30;53.90;;;;;;5018459;28;20053;-71
2023/08/17 12:25:57;;;;;;;17.20;9.07;;;30.20;54.00;;;;;;5017117;28;20033;-71
2023/08/17 12:28:24;;;;;;;13.68;8.65;;;30.20;54.00;;;;;;5006608;28;20095;-70
2023/08/17 12:31:01;;;;;;;19.00;9.55;;;30.30;54.10;;;;;;5008808;28;20493;-71
2023/08/17 12:33:27;;;;;;;11.68;7.18;;;30.30;53.90;;;;;;5011387;28;20060;-70
2023/08/17 12:35:53;;;;;;;15.07;7.70;;;30.50;53.90;;;;;;5009203;28;20045;-71
2023/08/17 12:38:20;;;;;;;10.10;6.45;;;30.60;53.60;;;;;;5001548;28;20508;-71
2023/08/17 12:40:46;;;;;;;11.43;7.03;;;30.70;53.40;;;;;;5012621;28;20034;-71